Time;durP1;ratioP1;P1;durP2;ratioP2;P2;SDS_P1;SDS_P2;PMS_P1;PMS_P2;Temp;Humidity;BMP_temperature;BMP_pressure;BME280_temperature;BME280_humidity;BME280_pressure;Samples;Min_cycle;Max_cycle;Signal;HPM_P1;HPM_P2
2023/01/20 00:00:24;;;;;;;36.75;16.48;;;;;;;-1.53;100.00;100540.66;5005433;28;20041;-79
2023/01/20 00:02:50;;;;;;;29.02;14.32;;;;;;;-1.54;100.00;100541.56;5020421;28;20037;-79
2023/01/20 00:05:16;;;;;;;21.83;12.75;;;;;;;-1.54;100.00;100543.31;5036902;28;20049;-78
2023/01/20 00:07:41;;;;;;;30.25;15.00;;;;;;;-1.57;100.00;100546.88;5010449;28;20030;-78
2023/01/20 00:10:08;;;;;;;39.85;17.42;;;;;;;-1.59;100.00;100553.88;5040555;28;20179;-78
2023/01/20 00:12:34;;;;;;;40.90;18.88;;;;;;;-1.61;100.00;100553.09;5025951;28;20551;-79
2023/01/20 00:15:00;;;;;;;29.45;15.55;;;;;;;-1.62;100.00;100549.66;5026193;28;20034;-78
2023/01/20 00:17:27;;;;;;;32.22;15.95;;;;;;;-1.60;100.00;100557.38;5032884;28;20412;-79
2023/01/20 00:19:53;;;;;;;35.05;17.42;;;;;;;-1.58;100.00;100559.91;5049658;28;21205;-77
2023/01/20 00:22:20;;;;;;;18.17;11.68;;;;;;;-1.58;100.00;100558.16;5051757;28;20078;-77
2023/01/20 00:24:46;;;;;;;26.38;13.38;;;;;;;-1.57;100.00;100557.25;5044049;28;20038;-79
2023/01/20 00:27:11;;;;;;;21.08;11.55;;;;;;;-1.55;100.00;100557.19;5018083;28;20033;-79
2023/01/20 00:29:37;;;;;;;25.23;11.20;;;;;;;-1.58;100.00;100554.72;5057340;28;20081;-79
2023/01/20 00:32:03;;;;;;;18.25;10.65;;;;;;;-1.60;100.00;100559.97;5028903;28;20033;-79
2023/01/20 00:34:29;;;;;;;20.33;12.30;;;;;;;-1.59;100.00;100553.03;5055514;28;20051;-79
2023/01/20 00:36:55;;;;;;;19.38;11.43;;;;;;;-1.56;100.00;100553.72;5061640;28;20025;-79
2023/01/20 00:39:21;;;;;;;18.48;11.95;;;;;;;-1.50;100.00;100548.28;5030772;28;20068;-78
2023/01/20 00:41:46;;;;;;;16.42;9.57;;;;;;;-1.45;100.00;100548.09;5054022;28;20177;-78
2023/01/20 00:44:12;;;;;;;29.05;14.38;;;;;;;-1.43;100.00;100554.06;5056326;28;20520;-78
2023/01/20 00:46:38;;;;;;;21.27;11.60;;;;;;;-1.40;100.00;100558.31;5053029;28;20043;-78
2023/01/20 00:49:05;;;;;;;14.43;8.88;;;;;;;-1.38;100.00;100565.09;5064468;28;20119;-78
2023/01/20 00:51:31;;;;;;;17.23;9.82;;;;;;;-1.37;100.00;100558.19;5051591;28;20037;-79
2023/01/20 00:53:56;;;;;;;17.95;11.07;;;;;;;-1.39;100.00;100559.97;5042706;28;20064;-79
2023/01/20 00:56:22;;;;;;;20.70;11.48;;;;;;;-1.42;100.00;100558.34;5067488;28;20037;-79
2023/01/20 00:58:48;;;;;;;20.58;11.55;;;;;;;-1.45;100.00;100549.88;5040393;28;20932;-79
2023/01/20 01:01:13;;;;;;;25.95;16.15;;;;;;;-1.47;100.00;100557.72;5025995;28;20032;-79
2023/01/20 01:03:39;;;;;;;24.73;14.52;;;;;;;-1.45;100.00;100557.66;5067382;28;20040;-79
2023/01/20 01:06:08;;;;;;;23.05;14.25;;;;;;;-1.42;100.00;100560.13;5058259;28;20083;-79
2023/01/20 01:08:34;;;;;;;18.27;11.13;;;;;;;-1.42;100.00;100557.53;5033632;28;20382;-79
2023/01/20 01:11:00;;;;;;;18.58;11.65;;;;;;;-1.39;100.00;100557.41;5065688;28;20037;-79
2023/01/20 01:13:26;;;;;;;23.77;12.20;;;;;;;-1.37;100.00;100553.00;5041266;28;20130;-79
2023/01/20 01:15:51;;;;;;;19.30;11.23;;;;;;;-1.38;100.00;100552.16;5039383;28;20036;-77
2023/01/20 01:18:17;;;;;;;18.42;11.98;;;;;;;-1.33;100.00;100546.75;5066908;28;20032;-78
2023/01/20 01:20:43;;;;;;;15.85;10.57;;;;;;;-1.33;100.00;100545.91;5068063;28;20039;-77
2023/01/20 01:23:10;;;;;;;21.58;11.73;;;;;;;-1.28;100.00;100551.75;5019632;28;20371;-77
2023/01/20 01:25:36;;;;;;;34.88;16.52;;;;;;;-1.28;100.00;100556.94;5049777;28;20194;-78
2023/01/20 01:28:02;;;;;;;28.70;15.55;;;;;;;-1.26;100.00;100557.72;5051319;28;20033;-78
2023/01/20 01:30:28;;;;;;;31.00;13.77;;;;;;;-1.26;100.00;100558.53;5077104;28;20089;-79
2023/01/20 01:32:54;;;;;;;24.55;13.85;;;;;;;-1.27;100.00;100554.28;5033395;28;20040;-79
2023/01/20 01:35:19;;;;;;;27.27;15.40;;;;;;;-1.29;100.00;100553.50;5069394;28;20032;-79
2023/01/20 01:37:45;;;;;;;23.85;14.70;;;;;;;-1.28;100.00;100554.34;5064180;28;20519;-79
2023/01/20 01:40:11;;;;;;;19.70;11.18;;;;;;;-1.31;100.00;100557.06;5021110;28;20542;-79
2023/01/20 01:42:37;;;;;;;21.40;12.32;;;;;;;-1.31;100.00;100560.50;5046547;28;20036;-79
2023/01/20 01:45:08;;;;;;;88.35;39.00;;;;;;;-1.23;100.00;100560.19;5045872;28;20081;-79
2023/01/20 01:47:37;;;;;;;131.10;61.00;;;;;;;-1.24;100.00;100558.47;5049898;28;20112;-79
2023/01/20 01:50:04;;;;;;;55.78;28.75;;;;;;;-1.22;100.00;100559.28;5050950;28;20025;-79
2023/01/20 01:52:31;;;;;;;21.20;12.27;;;;;;;-1.22;100.00;100561.88;5062187;28;20032;-78
2023/01/20 01:54:58;;;;;;;14.02;10.00;;;;;;;-1.19;100.00;100566.91;5063458;28;20055;-79
2023/01/20 01:57:24;;;;;;;27.80;13.00;;;;;;;-1.16;100.00;100560.75;5048380;28;20030;-79
2023/01/20 01:59:50;;;;;;;31.30;15.32;;;;;;;-1.15;100.00;100555.50;5029193;28;20043;-78
2023/01/20 02:02:18;;;;;;;30.02;16.88;;;;;;;-1.14;100.00;100557.19;5062448;28;20036;-78
2023/01/20 02:04:43;;;;;;;18.70;11.13;;;;;;;-1.11;100.00;100568.38;5058238;28;20029;-79
2023/01/20 02:07:14;;;;;;;21.20;12.13;;;;;;;-1.09;100.00;100569.97;5031430;28;20044;-79
2023/01/20 02:09:40;;;;;;;37.33;18.55;;;;;;;-1.08;100.00;100570.81;5031836;28;20061;-79
2023/01/20 02:12:11;;;;;;;19.15;11.82;;;;;;;-1.05;100.00;100575.88;5027116;28;20086;-79
2023/01/20 02:14:41;;;;;;;42.30;19.67;;;;;;;-1.10;100.00;100567.44;5056420;28;20036;-79
2023/01/20 02:17:34;;;;;;;47.63;24.30;;;;;;;-1.10;100.00;100564.84;5033707;28;20040;-79
2023/01/20 02:20:24;;;;;;;43.67;22.15;;;;;;;-1.09;100.00;100571.72;5007701;28;20432;-79
2023/01/20 02:23:29;;;;;;;30.33;15.75;;;;;;;-1.11;100.00;100573.56;5062867;28;20051;-79
2023/01/20 02:26:04;;;;;;;45.20;23.33;;;;;;;-1.10;100.00;100580.41;5021417;28;20037;-79
2023/01/20 02:28:36;;;;;;;64.43;34.50;;;;;;;-1.07;100.00;100580.28;5055604;28;20033;-79
2023/01/20 02:31:32;;;;;;;48.20;26.25;;;;;;;-1.03;100.00;100580.09;5045179;28;20673;-79
2023/01/20 02:34:25;;;;;;;37.40;19.73;;;;;;;-1.03;100.00;100579.22;5040276;28;20048;-78
2023/01/20 02:36:57;;;;;;;29.58;15.50;;;;;;;-1.00;100.00;100585.13;5033464;28;20083;-78
2023/01/20 02:39:35;;;;;;;46.50;26.30;;;;;;;-0.97;100.00;100585.94;5017954;28;20039;-78
2023/01/20 02:42:08;;;;;;;60.90;34.47;;;;;;;-0.96;100.00;100588.44;5024970;28;20044;-78
2023/01/20 02:44:43;;;;;;;25.15;13.10;;;;;;;-0.98;100.00;100589.41;5040882;28;20036;-79
2023/01/20 02:47:30;;;;;;;34.97;18.48;;;;;;;-0.96;100.00;100592.78;5049554;28;20036;-79
2023/01/20 02:50:08;;;;;;;38.35;22.30;;;;;;;-0.99;100.00;100591.19;5051087;28;20032;-79
2023/01/20 02:52:38;;;;;;;44.13;26.42;;;;;;;-1.03;100.00;100593.06;5044635;28;20039;-79
2023/01/20 02:55:11;;;;;;;64.93;36.55;;;;;;;-1.04;100.00;100596.56;5042990;28;20106;-79
2023/01/20 02:57:49;;;;;;;31.52;17.20;;;;;;;-1.06;100.00;100595.78;5065998;28;20043;-79
2023/01/20 03:00:30;;;;;;;15.38;9.65;;;;;;;-1.04;100.00;100593.97;5046927;28;20122;-79
2023/01/20 03:03:00;;;;;;;17.55;9.88;;;;;;;-1.02;100.00;100596.50;5061537;28;20041;-79
2023/01/20 03:05:33;;;;;;;17.13;10.48;;;;;;;-0.99;100.00;100606.75;5031746;28;20040;-79
2023/01/20 03:08:03;;;;;;;25.65;14.02;;;;;;;-0.96;100.00;100608.34;5061937;28;20037;-79
2023/01/20 03:10:32;;;;;;;17.17;10.10;;;;;;;-0.97;100.00;100607.50;5024044;28;20037;-79
2023/01/20 03:13:05;;;;;;;14.77;8.68;;;;;;;-0.96;100.00;100609.22;5065782;28;20396;-79
2023/01/20 03:15:53;;;;;;;29.17;17.33;;;;;;;-0.94;100.00;100601.34;5063748;28;20386;-79
2023/01/20 03:18:19;;;;;;;27.42;14.13;;;;;;;-0.93;100.00;100595.25;5048935;28;20063;-79
2023/01/20 03:20:45;;;;;;;22.98;14.90;;;;;;;-0.92;100.00;100602.97;5020515;28;20033;-78
2023/01/20 03:23:10;;;;;;;19.48;11.52;;;;;;;-0.92;100.00;100602.97;5036800;28;20634;-79
2023/01/20 03:25:38;;;;;;;22.27;11.10;;;;;;;-0.89;100.00;100600.25;5048061;28;20085;-79
2023/01/20 03:28:04;;;;;;;16.15;9.98;;;;;;;-0.86;100.00;100604.44;5035782;28;20037;-79
2023/01/20 03:30:30;;;;;;;10.75;7.47;;;;;;;-0.88;100.00;100607.09;5043297;28;20060;-79
2023/01/20 03:32:56;;;;;;;12.23;8.00;;;;;;;-0.88;100.00;100612.28;5037223;28;20528;-79
2023/01/20 03:35:23;;;;;;;13.73;8.52;;;;;;;-0.85;100.00;100608.75;5051707;28;20036;-79
2023/01/20 03:37:48;;;;;;;19.05;11.13;;;;;;;-0.82;100.00;100607.75;5056347;28;20033;-79
2023/01/20 03:40:15;;;;;;;16.75;10.13;;;;;;;-0.79;100.00;100610.22;5035450;28;20045;-79
2023/01/20 03:42:51;;;;;;;13.85;8.95;;;;;;;-0.77;100.00;100600.63;5035166;28;20360;-79
2023/01/20 03:45:37;;;;;;;11.43;8.20;;;;;;;-0.74;100.00;100603.09;5053806;28;20060;-79
2023/01/20 03:48:29;;;;;;;18.02;8.48;;;;;;;-0.74;100.00;100597.91;5062900;28;20059;-79
2023/01/20 03:51:03;;;;;;;12.13;7.32;;;;;;;-0.71;100.00;100599.50;5041862;28;20094;-79
2023/01/20 03:53:47;;;;;;;11.82;7.03;;;;;;;-0.70;100.00;100598.59;5061271;28;20043;-79
2023/01/20 03:56:54;;;;;;;15.35;7.55;;;;;;;-0.70;100.00;100598.59;5061602;28;20121;-78
2023/01/20 03:59:21;;;;;;;14.27;7.93;;;;;;;-0.73;100.00;100601.34;5030581;28;20049;-79
2023/01/20 04:01:48;;;;;;;14.90;9.32;;;;;;;-0.72;100.00;100603.03;5052357;28;20036;-79
2023/01/20 04:04:16;;;;;;;15.52;8.65;;;;;;;-0.81;100.00;100599.09;5021482;28;20085;-79
2023/01/20 04:06:44;;;;;;;11.90;7.95;;;;;;;-0.84;100.00;100609.56;4960705;28;20378;-79
2023/01/20 04:09:23;;;;;;;13.95;8.57;;;;;;;-0.84;100.00;100607.81;5041714;28;20041;-79
2023/01/20 04:11:50;;;;;;;13.38;8.60;;;;;;;-0.88;100.00;100599.31;5050901;28;20106;-79
2023/01/20 04:14:16;;;;;;;14.60;8.50;;;;;;;-0.88;100.00;100606.28;5060125;28;20110;-79
2023/01/20 04:16:48;;;;;;;18.27;8.98;;;;;;;-1.00;100.00;100605.03;5067606;28;20040;-79
2023/01/20 04:19:13;;;;;;;14.30;8.32;;;;;;;-1.11;100.00;100610.69;5059863;28;20397;-78
2023/01/20 04:21:47;;;;;;;16.17;9.02;;;;;;;-1.13;100.00;100604.72;5036490;28;20053;-76
2023/01/20 04:24:15;;;;;;;13.00;8.50;;;;;;;-1.11;100.00;100605.50;5025832;28;20043;-79
2023/01/20 04:26:41;;;;;;;18.45;9.57;;;;;;;-1.08;100.00;100596.75;5045554;28;20040;-79
2023/01/20 04:29:07;;;;;;;16.05;9.80;;;;;;;-1.06;100.00;100600.13;5041025;28;20400;-79
2023/01/20 04:31:34;;;;;;;14.57;8.88;;;;;;;-1.07;100.00;100606.22;5021723;28;20044;-79
2023/01/20 04:34:01;;;;;;;19.33;10.60;;;;;;;-1.09;100.00;100592.47;5061144;28;20032;-80
2023/01/20 04:36:27;;;;;;;14.35;9.57;;;;;;;-1.06;100.00;100595.78;5051651;28;20068;-79
2023/01/20 04:38:53;;;;;;;26.00;10.95;;;;;;;-1.02;100.00;100597.31;5041176;28;20033;-79
2023/01/20 04:41:18;;;;;;;14.60;9.43;;;;;;;-0.97;100.00;100596.31;5048933;28;20458;-79
2023/01/20 04:43:45;;;;;;;15.50;9.23;;;;;;;-0.95;100.00;100591.88;5046004;28;20033;-79
2023/01/20 04:46:15;;;;;;;16.63;11.13;;;;;;;-0.90;100.00;100592.53;5046134;28;20085;-79
2023/01/20 04:48:44;;;;;;;15.43;10.15;;;;;;;-0.92;100.00;100589.13;5031191;28;20470;-79
2023/01/20 04:51:09;;;;;;;17.08;10.63;;;;;;;-0.98;100.00;100586.81;5049008;28;20069;-79
2023/01/20 04:53:35;;;;;;;17.02;10.88;;;;;;;-1.02;100.00;100589.53;5057662;28;20087;-79
2023/01/20 04:56:01;;;;;;;17.92;10.05;;;;;;;-1.02;100.00;100581.75;5044428;28;20036;-79
2023/01/20 04:58:27;;;;;;;16.35;10.88;;;;;;;-1.00;100.00;100586.88;5046092;28;20040;-79
2023/01/20 05:00:52;;;;;;;16.63;9.85;;;;;;;-1.02;100.00;100591.31;5065004;28;20499;-78
2023/01/20 05:03:18;;;;;;;14.15;10.18;;;;;;;-1.07;100.00;100588.91;5052770;28;20028;-77
2023/01/20 05:05:52;;;;;;;20.10;10.55;;;;;;;-1.02;100.00;100594.72;5027100;28;20041;-79
2023/01/20 05:08:18;;;;;;;18.13;10.32;;;;;;;-1.02;100.00;100591.31;5055101;28;20094;-79
2023/01/20 05:10:43;;;;;;;18.38;8.80;;;;;;;-0.99;100.00;100598.97;5034697;28;20040;-79
2023/01/20 05:13:09;;;;;;;13.50;9.38;;;;;;;-0.97;100.00;100604.91;5057446;28;20072;-79
2023/01/20 05:15:35;;;;;;;18.73;9.15;;;;;;;-0.96;100.00;100595.38;5059218;28;20029;-79
2023/01/20 05:18:00;;;;;;;14.35;9.48;;;;;;;-0.93;100.00;100596.09;5051626;28;20032;-79
2023/01/20 05:20:26;;;;;;;14.77;8.45;;;;;;;-0.92;100.00;100600.38;5043355;28;20035;-78
2023/01/20 05:22:52;;;;;;;20.73;10.25;;;;;;;-0.90;100.00;100597.72;5062955;28;20041;-79
2023/01/20 05:25:18;;;;;;;20.08;10.23;;;;;;;-0.94;100.00;100599.59;5053261;28;20036;-77
2023/01/20 05:27:43;;;;;;;14.63;9.77;;;;;;;-0.94;100.00;100596.16;5050474;28;20108;-77
2023/01/20 05:30:10;;;;;;;15.60;8.75;;;;;;;-0.91;100.00;100599.44;5037883;28;20047;-78
2023/01/20 05:32:36;;;;;;;13.95;8.73;;;;;;;-0.88;100.00;100588.13;5047963;28;20048;-79
2023/01/20 05:35:01;;;;;;;16.70;9.52;;;;;;;-0.87;100.00;100597.56;5014067;28;20094;-77
2023/01/20 05:37:27;;;;;;;20.58;10.23;;;;;;;-0.86;100.00;100585.47;5059469;28;20035;-77
2023/01/20 05:39:53;;;;;;;16.58;9.65;;;;;;;-0.85;100.00;100589.72;5020212;28;22199;-79
2023/01/20 05:42:19;;;;;;;17.60;9.82;;;;;;;-0.93;100.00;100584.88;5067678;28;20036;-80
2023/01/20 05:44:44;;;;;;;17.15;9.82;;;;;;;-0.99;100.00;100591.19;4982318;28;20706;-79
2023/01/20 05:47:10;;;;;;;18.02;11.15;;;;;;;-1.01;100.00;100593.00;5028952;28;20033;-78
2023/01/20 05:49:36;;;;;;;19.55;11.05;;;;;;;-1.03;100.00;100584.41;5050698;28;20043;-78
2023/01/20 05:52:01;;;;;;;23.98;11.38;;;;;;;-1.01;100.00;100593.00;5045933;28;20036;-78
2023/01/20 05:54:27;;;;;;;17.92;10.80;;;;;;;-1.01;100.00;100586.06;5060654;28;20374;-79
2023/01/20 05:56:53;;;;;;;23.13;11.52;;;;;;;-0.97;100.00;100589.34;4999052;28;20037;-79
2023/01/20 05:59:19;;;;;;;18.13;10.25;;;;;;;-0.92;100.00;100579.63;5046615;28;20029;-79
2023/01/20 06:01:44;;;;;;;16.10;9.25;;;;;;;-0.86;100.00;100595.84;5060427;28;20048;-79
2023/01/20 06:04:10;;;;;;;17.73;10.18;;;;;;;-0.84;100.00;100581.03;5049370;28;20025;-79
2023/01/20 06:06:36;;;;;;;15.27;9.63;;;;;;;-0.85;100.00;100584.53;5050673;28;20037;-79
2023/01/20 06:09:02;;;;;;;15.27;10.00;;;;;;;-0.88;100.00;100581.16;5061790;28;20457;-79
2023/01/20 06:11:28;;;;;;;16.75;10.45;;;;;;;-0.88;100.00;100581.16;5056431;28;20055;-78
2023/01/20 06:13:53;;;;;;;18.13;10.32;;;;;;;-0.86;100.00;100596.66;5025702;28;20028;-78
2023/01/20 06:16:19;;;;;;;19.23;10.52;;;;;;;-0.88;100.00;100583.75;5042826;28;20028;-78
2023/01/20 06:18:45;;;;;;;15.50;9.45;;;;;;;-0.93;100.00;100595.25;5050267;28;20029;-79
2023/01/20 06:21:11;;;;;;;16.27;10.15;;;;;;;-0.96;100.00;100593.66;5052390;28;20087;-79
2023/01/20 06:23:37;;;;;;;13.05;9.55;;;;;;;-0.98;100.00;100587.66;5048074;28;20158;-79
2023/01/20 06:26:09;;;;;;;17.25;9.65;;;;;;;-1.04;100.00;100585.34;5046374;28;20047;-79
2023/01/20 06:28:35;;;;;;;16.00;9.68;;;;;;;-1.15;100.00;100591.00;5040578;28;20073;-79
2023/01/20 06:31:03;;;;;;;19.10;10.18;;;;;;;-1.16;100.00;100586.69;5043630;28;20041;-79
2023/01/20 06:33:30;;;;;;;14.98;9.75;;;;;;;-1.17;100.00;100590.19;5060267;28;20038;-79
2023/01/20 06:35:56;;;;;;;14.95;10.30;;;;;;;-1.25;100.00;100595.72;5050865;28;20052;-79
2023/01/20 06:38:24;;;;;;;21.17;11.10;;;;;;;-1.29;100.00;100594.16;5062982;28;20431;-79
2023/01/20 06:40:50;;;;;;;19.50;11.32;;;;;;;-1.30;100.00;100590.72;5038431;28;20040;-79
2023/01/20 06:43:16;;;;;;;19.17;11.15;;;;;;;-1.28;100.00;100601.88;5033313;28;20151;-79
2023/01/20 06:45:42;;;;;;;14.15;9.68;;;;;;;-1.26;100.00;100589.66;5034220;28;20047;-79
2023/01/20 06:48:08;;;;;;;17.33;10.07;;;;;;;-1.22;100.00;100592.13;5001495;28;20048;-79
2023/01/20 06:50:34;;;;;;;19.95;11.13;;;;;;;-1.19;100.00;100592.00;5051355;28;20393;-79
2023/01/20 06:53:00;;;;;;;19.83;11.10;;;;;;;-1.17;100.00;100591.06;5069688;28;20029;-79
2023/01/20 06:55:25;;;;;;;21.70;11.02;;;;;;;-1.14;100.00;100590.91;5069959;28;20794;-79
2023/01/20 06:57:52;;;;;;;20.73;12.23;;;;;;;-1.10;100.00;100595.97;5026883;28;20041;-79
2023/01/20 07:00:19;;;;;;;20.60;11.15;;;;;;;-1.10;100.00;100606.34;5031142;28;20033;-79
2023/01/20 07:02:47;;;;;;;18.17;11.32;;;;;;;-1.08;100.00;100607.97;5046652;28;20491;-79
2023/01/20 07:05:13;;;;;;;17.83;11.65;;;;;;;-1.12;100.00;100614.19;5028707;28;20025;-79
2023/01/20 07:07:39;;;;;;;19.80;11.55;;;;;;;-1.14;100.00;100611.66;5047625;28;20032;-78
2023/01/20 07:10:05;;;;;;;17.25;9.93;;;;;;;-1.17;100.00;100608.34;5046074;28;20060;-77
2023/01/20 07:12:31;;;;;;;19.38;10.50;;;;;;;-1.21;100.00;100605.03;5048844;28;20124;-78
2023/01/20 07:14:56;;;;;;;23.05;11.55;;;;;;;-1.23;100.00;100608.63;5061922;28;20492;-79
2023/01/20 07:17:22;;;;;;;15.52;10.52;;;;;;;-1.22;100.00;100615.47;5049893;28;20025;-79
2023/01/20 07:19:48;;;;;;;16.30;9.95;;;;;;;-1.23;100.00;100603.44;5060111;28;20028;-79
2023/01/20 07:22:13;;;;;;;13.18;9.25;;;;;;;-1.22;100.00;100603.38;5061434;28;20636;-79
2023/01/20 07:24:39;;;;;;;16.33;9.82;;;;;;;-1.22;100.00;100605.09;5044245;28;20083;-79
2023/01/20 07:27:05;;;;;;;13.30;9.60;;;;;;;-1.20;100.00;100598.97;5061089;28;20029;-79
2023/01/20 07:29:30;;;;;;;15.77;9.65;;;;;;;-1.17;100.00;100601.44;5062001;28;20468;-78
2023/01/20 07:31:56;;;;;;;15.80;9.10;;;;;;;-1.15;100.00;100593.56;5047779;28;20035;-79
2023/01/20 07:34:22;;;;;;;14.20;9.25;;;;;;;-1.10;100.00;100590.78;5064756;28;20044;-79
2023/01/20 07:36:51;;;;;;;14.07;8.57;;;;;;;-1.05;100.00;100588.84;5059110;28;20385;-79
2023/01/20 07:39:18;;;;;;;16.45;9.52;;;;;;;-1.08;100.00;100584.63;5046926;28;20045;-78
2023/01/20 07:41:47;;;;;;;16.00;9.13;;;;;;;-1.06;100.00;100589.75;5059372;28;20036;-77
2023/01/20 07:44:15;;;;;;;13.80;8.57;;;;;;;-1.04;100.00;100593.13;5048543;28;20036;-78
2023/01/20 07:46:40;;;;;;;11.82;8.00;;;;;;;-1.04;100.00;100596.56;5044756;28;20628;-79
2023/01/20 07:49:06;;;;;;;13.90;8.02;;;;;;;-1.03;100.00;100599.97;5041897;28;20032;-79
2023/01/20 07:51:32;;;;;;;14.23;8.75;;;;;;;-1.06;100.00;100605.31;5058154;28;20099;-79
2023/01/20 07:53:58;;;;;;;12.40;8.40;;;;;;;-1.09;100.00;100608.88;5061305;28;20469;-79
2023/01/20 07:56:26;;;;;;;14.27;8.75;;;;;;;-1.11;100.00;100615.06;5063562;28;20031;-79
2023/01/20 07:58:53;;;;;;;12.05;8.15;;;;;;;-1.12;100.00;100627.19;5037630;28;20108;-79
2023/01/20 08:01:30;;;;;;;14.85;8.50;;;;;;;-1.14;100.00;100624.66;5030687;28;20523;-79
2023/01/20 08:03:59;;;;;;;15.73;8.50;;;;;;;-1.21;100.00;100620.59;5047587;28;20705;-79
2023/01/20 08:06:25;;;;;;;9.85;7.80;;;;;;;-1.32;100.00;100620.22;5048848;28;20036;-79
2023/01/20 08:08:51;;;;;;;14.93;8.80;;;;;;;-1.36;100.00;100622.09;5028615;28;20047;-80
2023/01/20 08:11:18;;;;;;;13.52;9.23;;;;;;;-1.41;100.00;100618.84;5032510;28;20036;-79
2023/01/20 08:13:44;;;;;;;14.38;8.73;;;;;;;-1.44;100.00;100630.19;5062831;28;20435;-79
2023/01/20 08:16:12;;;;;;;14.25;8.80;;;;;;;-1.48;100.00;100631.19;5048532;28;20086;-79
2023/01/20 08:18:39;;;;;;;15.55;9.45;;;;;;;-1.61;100.00;100638.66;5064301;28;20027;-79
2023/01/20 08:21:07;;;;;;;18.15;8.80;;;;;;;-1.66;100.00;100643.16;5060713;28;20045;-79
2023/01/20 08:23:36;;;;;;;17.92;9.23;;;;;;;-1.75;100.00;100632.25;5039443;28;20115;-79
2023/01/20 08:26:04;;;;;;;14.43;8.63;;;;;;;-1.77;100.00;100636.63;5057045;28;20078;-79
2023/01/20 08:28:32;;;;;;;15.55;8.15;;;;;;;-1.79;100.00;100635.00;5025271;28;20021;-78
2023/01/20 08:31:03;;;;;;;16.75;9.82;;;;;;;-1.77;100.00;100638.41;5047420;28;20028;-79
2023/01/20 08:33:29;;;;;;;10.95;7.50;;;;;;;-1.78;100.00;100642.72;5057052;28;20558;-79
2023/01/20 08:35:58;;;;;;;15.35;8.50;;;;;;;-1.71;100.00;100645.94;5048289;28;20040;-79
2023/01/20 08:38:23;;;;;;;14.10;9.20;;;;;;;-1.65;100.00;100648.28;5032827;28;20029;-79
2023/01/20 08:40:49;;;;;;;16.42;8.90;;;;;;;-1.60;100.00;100655.88;5063509;28;20032;-77
2023/01/20 08:43:15;;;;;;;17.60;9.95;;;;;;;-1.54;100.00;100653.03;5029203;28;20037;-78
2023/01/20 08:45:42;;;;;;;23.65;12.20;;;;;;;-1.48;100.00;100661.47;5028326;28;20037;-77
2023/01/20 08:48:08;;;;;;;22.10;12.95;;;;;;;-1.46;100.00;100657.91;5025626;28;20037;-77
2023/01/20 08:50:35;;;;;;;30.45;14.82;;;;;;;-1.43;100.00;100665.56;5057487;28;20143;-79
2023/01/20 08:53:01;;;;;;;23.13;13.10;;;;;;;-1.44;100.00;100679.44;5025994;28;20086;-79
2023/01/20 08:55:26;;;;;;;26.10;14.50;;;;;;;-1.40;100.00;100675.81;5023670;28;20044;-79
2023/01/20 08:57:52;;;;;;;27.20;13.98;;;;;;;-1.37;100.00;100673.09;5043531;28;20057;-79
2023/01/20 09:00:18;;;;;;;20.50;12.35;;;;;;;-1.32;100.00;100679.88;5046197;28;20044;-78
2023/01/20 09:02:44;;;;;;;20.00;12.60;;;;;;;-1.28;100.00;100676.25;5040463;28;20040;-77
2023/01/20 09:05:10;;;;;;;18.67;12.20;;;;;;;-1.23;100.00;100683.84;5046231;28;20037;-79
2023/01/20 09:07:36;;;;;;;24.92;12.90;;;;;;;-1.18;100.00;100677.53;5022131;28;20967;-79
2023/01/20 09:10:03;;;;;;;20.83;11.65;;;;;;;-1.14;100.00;100673.94;5038501;28;20032;-79
2023/01/20 09:12:29;;;;;;;22.90;12.82;;;;;;;-1.14;100.00;100681.72;5046371;28;20041;-79
2023/01/20 09:14:54;;;;;;;21.65;12.63;;;;;;;-1.17;100.00;100676.66;5048188;28;20028;-77
2023/01/20 09:17:20;;;;;;;28.92;13.93;;;;;;;-1.18;100.00;100681.91;5053509;28;20032;-77
2023/01/20 09:19:46;;;;;;;25.17;13.07;;;;;;;-1.13;100.00;100682.53;5053222;28;20033;-79
2023/01/20 09:22:11;;;;;;;29.60;15.18;;;;;;;-1.07;100.00;100687.50;5050009;28;20515;-79
2023/01/20 09:24:37;;;;;;;29.40;15.00;;;;;;;-1.01;100.00;100694.19;5064799;28;20029;-79
2023/01/20 09:27:03;;;;;;;34.67;16.55;;;;;;;-0.95;100.00;100696.53;5055581;28;20440;-79
2023/01/20 09:29:29;;;;;;;42.97;21.25;;;;;;;-0.94;100.00;100694.78;5043359;28;20043;-79
2023/01/20 09:31:58;;;;;;;48.38;19.88;;;;;;;-0.98;100.00;100701.84;5050571;28;20053;-79
2023/01/20 09:34:26;;;;;;;39.92;18.27;;;;;;;-0.95;100.00;100703.44;5039850;28;20088;-79
2023/01/20 09:36:57;;;;;;;35.05;16.50;;;;;;;-0.93;100.00;100697.31;5027774;28;20051;-79
2023/01/20 09:45:31;;;;;;;25.92;11.95;;;;;;;-0.70;100.00;100694.66;5028978;28;20710;-79
2023/01/20 09:54:22;;;;;;;19.23;9.77;;;;;;;-0.48;100.00;100710.16;5038358;28;20036;-79
2023/01/20 09:56:52;;;;;;;19.85;8.82;;;;;;;-0.41;100.00;100719.38;5035918;28;20075;-79
2023/01/20 09:59:23;;;;;;;19.10;10.77;;;;;;;-0.36;100.00;100723.50;5071047;28;20032;-79
2023/01/20 10:02:03;;;;;;;12.60;8.02;;;;;;;-0.36;100.00;100723.50;5041745;28;20048;-79
2023/01/20 10:04:42;;;;;;;13.35;8.13;;;;;;;-0.30;100.00;100725.84;5041496;28;20052;-79
2023/01/20 10:07:28;;;;;;;14.25;7.50;;;;;;;-0.23;100.00;100729.03;5059882;28;20043;-80
2023/01/20 10:10:04;;;;;;;12.77;7.63;;;;;;;-0.17;100.00;100736.53;5058325;28;20046;-79
2023/01/20 10:12:44;;;;;;;14.38;7.97;;;;;;;-0.11;100.00;100740.63;5058969;28;20485;-80
2023/01/20 10:15:33;;;;;;;10.60;6.95;;;;;;;-0.04;100.00;100748.09;5026145;28;20060;-79
2023/01/20 10:18:12;;;;;;;14.90;7.60;;;;;;;0.01;100.00;100747.88;5014456;28;20076;-79
2023/01/20 10:20:59;;;;;;;13.77;7.70;;;;;;;0.10;100.00;100747.47;5045194;28;20056;-79
2023/01/20 10:23:46;;;;;;;13.07;8.27;;;;;;;0.19;100.00;100758.38;5041949;28;20047;-80
2023/01/20 10:26:24;;;;;;;10.80;7.68;;;;;;;0.26;100.00;100759.78;5048242;28;20504;-79
2023/01/20 10:29:01;;;;;;;10.57;6.88;;;;;;;0.38;100.00;100753.19;5041375;28;20033;-79
2023/01/20 10:31:31;;;;;;;12.73;7.97;;;;;;;0.48;100.00;100759.63;5041512;28;20044;-79
2023/01/20 10:34:07;;;;;;;10.75;6.85;;;;;;;0.55;100.00;100759.34;5055179;28;20033;-79
2023/01/20 10:36:34;;;;;;;11.27;7.38;;;;;;;0.59;100.00;100766.94;5074785;28;20473;-80
2023/01/20 10:39:02;;;;;;;13.80;6.28;;;;;;;0.61;100.00;100759.06;5045782;28;20036;-79
2023/01/20 10:41:44;;;;;;;9.88;6.32;;;;;;;0.67;100.00;100769.19;5063465;28;20039;-79
2023/01/20 10:44:11;;;;;;;11.05;5.90;;;;;;;0.69;100.00;100772.56;5036812;28;20045;-79
2023/01/20 10:46:52;;;;;;;10.88;6.28;;;;;;;0.73;100.00;100779.28;5023615;28;20454;-79
2023/01/20 10:49:52;;;;;;;9.55;5.22;;;;;;;0.77;100.00;100779.16;5023248;28;20091;-80
2023/01/20 10:52:21;;;;;;;11.27;6.82;;;;;;;0.77;100.00;100772.19;5032367;28;20032;-79
2023/01/20 10:55:08;;;;;;;14.15;8.40;;;;;;;0.81;100.00;100784.13;5028019;28;20032;-80
2023/01/20 10:57:35;;;;;;;14.20;7.13;;;;;;;0.84;100.00;100784.03;5049415;28;20121;-80
2023/01/20 11:00:16;;;;;;;12.00;8.07;;;;;;;0.91;100.00;100784.56;5048149;28;20063;-80
2023/01/20 11:02:42;;;;;;;13.40;8.23;;;;;;;0.92;100.00;100783.66;5019775;28;20400;-80
2023/01/20 11:05:14;;;;;;;11.45;7.18;;;;;;;0.95;100.00;100787.84;5024092;28;20044;-80
2023/01/20 11:07:40;;;;;;;10.70;6.90;;;;;;;1.02;100.00;100791.84;5049254;28;20130;-79
2023/01/20 11:10:27;;;;;;;12.70;7.47;;;;;;;1.03;100.00;100793.56;5047093;28;20464;-80
2023/01/20 11:12:58;;;;;;;8.93;5.88;;;;;;;1.00;100.00;100804.09;5061857;28;20502;-80
2023/01/20 11:15:35;;;;;;;11.25;6.20;;;;;;;1.02;100.00;100794.44;5017107;28;20163;-80
2023/01/20 11:18:13;;;;;;;11.30;6.28;;;;;;;1.08;100.00;100794.16;5053668;28;20036;-80
2023/01/20 11:20:44;;;;;;;14.40;6.28;;;;;;;1.11;100.00;100785.38;5044338;28;20060;-80
2023/01/20 11:23:33;;;;;;;9.75;6.07;;;;;;;1.13;100.00;100793.09;5023283;28;20127;-80
2023/01/20 11:26:08;;;;;;;10.00;6.57;;;;;;;1.11;100.00;100786.19;5063071;28;20037;-80
2023/01/20 11:29:09;;;;;;;8.43;6.27;;;;;;;1.19;100.00;100792.81;5046833;28;20037;-80